createdAt,value
2023-02-07T05:28:12.348Z,100.00
2023-02-07T05:32:34.530Z,100.00
2023-02-07T05:36:37.260Z,100.00
2023-02-07T05:40:41.392Z,100.00
2023-02-07T05:44:44.497Z,100.00
2023-02-07T05:48:48.209Z,100.00
2023-02-07T05:52:51.561Z,100.00
2023-02-07T05:56:54.542Z,100.00
2023-02-07T06:00:57.560Z,100.00
2023-02-07T06:05:00.610Z,100.00
2023-02-07T06:09:03.648Z,100.00
2023-02-07T06:13:07.297Z,100.00
2023-02-07T06:17:10.109Z,100.00
2023-02-07T06:21:13.120Z,100.00
2023-02-07T06:25:16.782Z,100.00
2023-02-07T06:29:20.318Z,100.00
2023-02-07T06:33:24.106Z,100.00
2023-02-07T06:37:28.100Z,100.00
2023-02-07T06:41:30.878Z,100.00
2023-02-07T06:45:33.878Z,100.00
2023-02-07T06:49:36.695Z,100.00
2023-02-07T06:53:40.063Z,100.00
2023-02-07T06:57:42.837Z,100.00
2023-02-07T07:01:47.746Z,100.00
2023-02-07T07:05:52.051Z,100.00
2023-02-07T07:09:54.997Z,100.00
2023-02-07T07:13:57.906Z,100.00
2023-02-07T07:18:00.938Z,100.00
2023-02-07T07:22:03.705Z,100.00
2023-02-07T07:26:06.883Z,100.00
2023-02-07T07:30:10.950Z,100.00
2023-02-07T07:34:14.545Z,100.00
2023-02-07T07:38:17.231Z,99.43
2023-02-07T07:42:20.379Z,99.49
2023-02-07T07:46:24.925Z,99.23
2023-02-07T07:50:28.127Z,96.98
2023-02-07T07:54:30.935Z,95.38
2023-02-07T07:58:34.107Z,94.74
2023-02-07T08:02:36.778Z,92.36
2023-02-07T08:06:39.820Z,90.36
2023-02-07T08:10:43.667Z,89.56
2023-02-07T08:14:46.810Z,87.79
2023-02-07T08:18:50.522Z,86.73
2023-02-07T08:22:53.558Z,85.63
2023-02-07T08:31:30.320Z,85.17
2023-02-07T08:35:33.333Z,83.41
2023-02-07T08:39:36.688Z,82.63
2023-02-07T08:43:39.512Z,80.88
2023-02-07T08:48:02.160Z,82.84
2023-02-07T08:56:26.699Z,80.68
2023-02-07T09:00:54.251Z,80.68
2023-02-07T09:05:13.232Z,80.43
2023-02-07T09:09:16.371Z,79.94
2023-02-07T09:13:21.260Z,81.00
2023-02-07T09:17:33.733Z,79.36
2023-02-07T09:21:42.890Z,77.83
2023-02-07T09:25:55.316Z,76.20
2023-02-07T09:30:09.300Z,73.48
2023-02-07T09:34:28.925Z,72.03
2023-02-07T09:43:28.432Z,68.20
2023-02-07T09:47:47.894Z,67.09
2023-02-07T09:52:10.333Z,66.61
2023-02-07T09:56:24.855Z,67.19
2023-02-07T10:00:38.667Z,66.28
2023-02-07T10:05:23.267Z,63.29
2023-02-07T10:10:35.884Z,63.57
2023-02-07T10:15:45.929Z,61.74
2023-02-07T10:20:48.400Z,61.78
2023-02-07T10:25:16.010Z,59.79
2023-02-07T10:29:55.332Z,53.25
2023-02-07T10:34:18.275Z,51.38
2023-02-07T10:39:38.180Z,49.87
2023-02-07T10:44:17.028Z,48.92
2023-02-07T10:48:23.013Z,44.47
2023-02-07T10:52:57.993Z,45.71
2023-02-07T10:57:42.100Z,42.02
2023-02-07T11:01:57.691Z,40.81
2023-02-07T11:06:10.676Z,38.91
2023-02-07T11:10:35.152Z,38.17
2023-02-07T11:14:53.304Z,36.90
2023-02-07T11:19:46.675Z,37.26
2023-02-07T11:23:51.730Z,39.42
2023-02-07T11:28:02.778Z,37.76
2023-02-07T11:32:46.838Z,36.56
2023-02-07T11:36:59.884Z,37.25
2023-02-07T11:42:03.929Z,36.49
2023-02-07T11:46:39.661Z,37.43
2023-02-07T11:51:07.377Z,35.06
2023-02-07T11:55:19.522Z,36.15
2023-02-07T11:59:29.223Z,34.77
2023-02-07T12:04:10.626Z,31.85
2023-02-07T12:08:35.115Z,33.88
2023-02-07T12:12:52.908Z,31.47
2023-02-07T12:17:21.107Z,34.41
2023-02-07T12:21:50.183Z,32.10
2023-02-07T12:26:03.676Z,31.71
2023-02-07T12:30:25.505Z,31.22
2023-02-07T12:34:47.817Z,32.26
2023-02-07T12:39:20.275Z,31.02
2023-02-07T12:43:38.857Z,31.15
2023-02-07T12:48:21.224Z,30.39
2023-02-07T12:52:44.747Z,32.08
2023-02-07T12:57:01.597Z,31.33
2023-02-07T13:01:54.436Z,30.06
2023-02-07T13:06:29.928Z,29.38
2023-02-07T13:11:17.106Z,30.23
2023-02-07T13:15:43.069Z,31.41
2023-02-07T13:20:20.214Z,31.26
2023-02-07T13:24:24.842Z,29.75
2023-02-07T13:28:45.744Z,29.02
2023-02-07T13:32:50.273Z,28.32
2023-02-07T13:36:58.790Z,29.43
2023-02-07T13:41:18.017Z,28.34
2023-02-07T13:45:34.832Z,31.53
2023-02-07T13:50:16.650Z,28.06
2023-02-07T13:54:46.984Z,28.50
2023-02-07T13:59:11.360Z,28.47
2023-02-07T14:03:35.492Z,31.32
2023-02-07T14:07:39.790Z,33.00
2023-02-07T14:12:01.500Z,31.20
2023-02-07T14:16:13.505Z,32.62
2023-02-07T14:20:34.881Z,32.42
2023-02-07T14:24:37.940Z,34.81
2023-02-07T14:28:46.310Z,35.23
2023-02-07T14:33:15.269Z,36.13
2023-02-07T14:37:36.509Z,34.65
2023-02-07T14:41:42.817Z,34.96
2023-02-07T14:45:51.634Z,35.84
2023-02-07T14:49:59.343Z,34.59
2023-02-07T14:54:06.831Z,36.38
2023-02-07T14:58:43.176Z,38.54
2023-02-07T15:02:58.707Z,43.96
2023-02-07T15:07:02.305Z,43.97
2023-02-07T15:11:07.491Z,48.95
2023-02-07T15:15:18.881Z,49.53
2023-02-07T15:19:42.271Z,50.02
2023-02-07T15:23:49.685Z,52.65
2023-02-07T15:28:09.236Z,53.51
2023-02-07T15:32:22.074Z,53.04
2023-02-07T15:36:40.738Z,56.06
2023-02-07T15:40:44.108Z,54.88
2023-02-07T15:44:52.016Z,56.65
2023-02-07T15:48:58.231Z,60.80
2023-02-07T15:53:04.164Z,64.27
2023-02-07T15:57:12.650Z,65.66
